Du har inga inställningar för hoppväder.nu

Hoppväder.nu

Senast uppdaterat 10:26

UTC-tid

2019-01-17 kl. 09:26


Sol och måne

Solen går upp 8:45 och går ner 15:32 (beräknade cirkatider)
Nästa fullmåne blir om 4 dagar (2019-01-21)

METAR

ESSD (Borlänge)
(36 minuter sedan)
ESSD 170850Z 32011KT 8000 -SN OVC017 M05/M05 Q0987=



ESOE (Örebro)
(36 minuter sedan)
ESOE 170850Z 27005KT 240V300 9999 BKN036 M06/M08 Q0987=



ESOW (Västerås)
(36 minuter sedan)
ESOW 170850Z 31009KT 9999 SHSN FEW007 SCT025 BKN033 M03/M06 Q0986=



ESOK (Karlstad)
(36 minuter sedan)
ESOK 170850Z 30006KT CAVOK M10/M11 Q0989=






TAF

ESSD (Borlänge)
(56 minuter sedan)
ESSD RRA 170830Z 1709/1716 31010KT 9999 SCT010 BKN015 TEMPO 1709/1713 3500 SN VV009=



ESOE (Örebro)
(56 minuter sedan)
ESOE RRA 170830Z 1709/1718 31006KT 9999 BKN013 BECMG 1709/1711 BKN015 PROB40 1711/1714 4000 SN VV012=



ESOW (Västerås)
(23 minuter sedan)
ESOW AAA 170903Z 1709/1715 32010KT 9999 SCT010 BKN025 PROB40 1709/1710 BKN008 PROB40 1710/1714 3500 SN VV009=



ESOK (Karlstad)
(56 minuter sedan)
ESOK RRA 170830Z 1709/1718 31010KT CAVOK PROB40 1712/1715 4000 SN VV014=





Kodnycklar till TAF och METAR






LHP

(Borlänge är område F2a i Norra delen)

ÖVERSIKT FÖR OMRÅDE B UTFÄRDAD 170857
GÄLLANDE DEN 17 JANUARI 2019 MELLAN 09 OCH 17 UTC


Väderöversikt

Torrare nordvästvindar börjar avancera över södra Sverige

Sikt under 5 kilometer eller molnbas under 1000 fot
09-13UTC: I hela området
13-17UTC: Hela området utom Nordvästra delen


Måttlig eller svår isbildning
09-17UTC: I hela området


Måttlig eller svår turbulens
Väntas inte förekomma under perioden



PROGNOS FÖR OMRÅDE B DEN NORRA DELEN UTFÄRDAD 170857
GÄLLANDE DEN 17 JANUARI 2019 MELLAN 09 OCH 17 UTC

Måttlig eller svår turbulens
09-17UTC: I hela området: Väntas inte förekomma under perioden

Måttlig eller svår isbildning
09-17UTC: I hela området: måttlig isbildning 500ft - FL120

Sikt/Väder/Moln
09-11UTC: Område F2c,F2b: Sikt 1.5km - >8km i snöfall. Molnbas 500ft - >2000ft.
Område F1b,F1a,F2a,F2d: Sikt >8km, lokalt 1.5km - 3km i snöfall. Molnbas >2000ft, lokalt 500ft - 1000ft.

11-13UTC: Område F1a,F2c: Sikt >8km, lokalt 1.5km - 3km i snöbyar. Molnbas >2000ft, lokalt 500ft - 1000ft.
Område F1b,F2a,F2b,F2d: Sikt 1.5km - >8km i snöbyar. Molnbas 500ft - >2000ft.

13-15UTC: Område F2a: Sikt 1.5km - >8km i snöfall. Molnbas 500ft - >2000ft.
Område F2d: Sikt >8km, lokalt 1.5km - 3km i snöfall. Molnbas >2000ft, lokalt 500ft - 1000ft.
Område F2b: Sikt 5km - >8km. Molnbas 1000ft - >2000ft.

13-17UTC: Område F1b,F1a,F2c: Sikt 1.5km - >8km i snöfall. Molnbas 500ft - >2000ft.

15-17UTC: Område F2d: Sikt 1.5km - >8km i snöfall. Molnbas 500ft - >2000ft.
Område F2a: Sikt 5km - >8km. Molnbas 1000ft - >2000ft.
Område F2b: Sikt >8km. Molnbas >2000ft.


Molnöversida
09-13UTC: Område F2b: Molnöversida > FL125.

09-17UTC: Område F1b,F1a,F2a,F2c,F2d: Molnöversida > FL125.

13-15UTC: Område F2b: Molnöversida FL060.

15-17UTC: Område F2b: Ingen prognos


CB/TCU Moln
09-17UTC: I hela området: Väntas inte förekomma under perioden

Nollgradersisoterm
09-17UTC: Noll grader SFC.

Vind vid marken
09-11UTC: Område F1b: N/7-23 knop, byar upp till 32 knop.
Område F2d: N/5-12 knop, byar upp till 23 knop.
Område F2c: N/3-12 knop, byar upp till 26 knop.
Område F2a: N/2-12 knop, byar upp till 25 knop.
Område F1a: N-NO/8-24 knop, byar upp till 32 knop.
Område F2b: NV-N/2-8 knop, byar upp till 18 knop.

11-13UTC: Område F1a: N/8-28 knop, byar upp till 36 knop.
Område F2c: N/6-13 knop, byar upp till 27 knop.
Område F2a: N/4-14 knop, byar upp till 28 knop.
Område F2b: N/3-9 knop, byar upp till 19 knop.
Område F1b: N/8-25 knop, byar upp till 33 knop.
Område F2d: N/7-12 knop, byar upp till 24 knop.

13-15UTC: Område F2b: NV-N/3-8 knop, byar upp till 19 knop.
Område F1a: NV-N/5-26 knop, byar upp till 36 knop.
Område F2a: NV/2-11 knop, byar upp till 26 knop.
Område F2c: NV-N/5-11 knop, byar upp till 30 knop.
Område F1b: N/7-27 knop, byar upp till 38 knop.
Område F2d: NV-N/6-12 knop, byar upp till 25 knop.

15-17UTC: Område F1b: NV-N/5-24 knop, byar upp till 35 knop.
Område F1a: NV/4-19 knop, byar upp till 28 knop.
Område F2a: W-NV/0-8 knop, byar upp till 17 knop.
Område F2d: NV/4-9 knop, byar upp till 21 knop.
Område F2b: NV/2-7 knop, byar upp till 17 knop.
Område F2c: NV/3-9 knop, byar upp till 19 knop.


Genomsnittlig vind och temperatur för området
2000ft:
09-11UTC: 20/24kt -7.
11-13UTC: 10/23kt -7.
13-15UTC: 360/21kt -8.
15-17UTC: 350/20kt -8.

FL50:
09-11UTC: 10/21kt -12.
11-13UTC: 10/23kt -13.
13-15UTC: 360/23kt -13.
15-17UTC: 340/21kt -13.

FL100:
09-11UTC: 300/23kt -22.
11-13UTC: 320/22kt -23.
13-15UTC: 330/23kt -24.
15-17UTC: 340/26kt -24.

Lägsta QNH
982 hPa, stigande, lägst i öst.

OBS! endast utbredd måttlig eller svår isbildning och turbulens prognostiseras i LLF.
Avsaknad av isbildning och turbulens i prognosen utesluter inte förekomst av lätt isbildning och turbulens.
För indikation på lätt isbildning, var vänlig kontrollera om prognosen för molntopp ligger högre än nollgradersisotermen.
Förekomst av TCU eller CB medför alltid en risk för måttlig eller svår isbildning och turbulens även om det inte framgår explicit av prognosen.





Spotting

Hur fungerar spotthjälpen och Vindkartan?

Markvind är ca 0 m/s.
Vind på 600 m ca 12 m/s.
Vind på 1500 m ca 11 m/s.
Vind på 3000 m ca 12 m/s.
Rudolf-David flyger ca 29 m/s över marken på finalen.
Du driver ca 532 m bakåt i frifall. (710 m)
Lämplig spot är 8 sekunder eller 235 m efter gropen.
(14 s eller 411 m)
För små grupper eller ensamhoppare bör man vänta 5-7 sekunder mellan grupperna.
För större grupper bör man vänta 10-12 sekunder mellan grupperna.


Vindkartan

Senast uppdaterad 10:26




All data kommer från LFV.se